x

Fowey Rock, Fl (fwyf1) Weather Station

5:00pm - Sat 27th May 2017 All times are EDT. -4 hours from GMT.

  • Wind
    17mph, 17mph gusts
  • Sea Temp 85°f
  • Air Temp 85°f
  • Sea Pressure 1017.5mb
  • Fowey Rock, Fl
  • Fowey Rock, Fl

More Historic Weather Station data

Upgrade to MSW Pro to gain access to the past 30 days of data for over 8000 Wavebouys and Weather Stations around the globe.

Join Pro

Comparision Forecast

View Surf forecast
   
Sat 05/27 5:00pm 17 17 mph 1017.5mb 85f 85f
4:00pm 10 10 mph 1017.7mb 84f 86f
3:00pm 11 11 mph 1018mb 84f 86f
2:00pm 9 10 mph 1018.5mb 83f 86f
1:00pm 10 10 mph 1018.9mb 82f 87f
12:00pm 7 7 mph 1018.9mb 82f 87f
11:00am 5 5 mph 1019mb 82f 86f
10:00am 7 7 mph 1019mb 82f 85f
9:00am 6 7 mph 1019mb 82f 85f
8:00am 8 8 mph 1018.3mb 82f 85f
7:00am 9 9 mph 1017.9mb 83f 82f
6:00am 10 10 mph 1017.3mb 82f 81f
5:00am 11 13 mph 1017.3mb 82f 82f
4:00am 13 14 mph 1017.5mb 81f 81f
3:00am 11 11 mph 1017.8mb 81f 81f
2:00am 10 11 mph 1018.1mb 81f 81f
1:00am 10 11 mph 1018.5mb 81f 81f
12:00am 11 11 mph 1018.6mb 81f 81f
Fri 05/26 11:00pm 13 14 mph 1018.4mb 81f 81f
10:00pm 10 11 mph 1018.1mb 81f 81f
9:00pm 10 11 mph 1017.7mb 81f 81f
8:00pm 10 11 mph 1017.4mb 82f 81f
7:00pm 10 11 mph 1017.2mb 82f 82f
6:00pm 10 10 mph 1017.1mb 83f 81f
5:00pm 8 9 mph 1017.1mb 83f 81f
4:00pm 10 11 mph 1017.1mb 83f 81f
3:00pm 10 11 mph 1017.7mb 83f 80f
2:00pm 10 11 mph 1017.9mb 82f 80f
1:00pm 10 11 mph 1018.4mb 81f 80f
12:00pm 13 13 mph 1018.7mb 81f 79f
11:00am 11 11 mph 1018.7mb 80f 80f
10:00am 6 6 mph 1018.7mb 81f 81f
9:00am 5 5 mph 1018.2mb 81f 81f
8:00am  -  1 mph 1017.5mb 81f 82f
7:00am 2 2 mph 1016.9mb 80f 81f
6:00am 5 6 mph 1016.3mb 82f 81f
5:00am 6 6 mph 1015.9mb 82f 81f
4:00am 6 7 mph 1015.6mb 82f 81f
3:00am 8 8 mph 1015.6mb 82f 81f
2:00am 9 9 mph 1015.8mb 81f 81f
1:00am 7 8 mph 1016mb 81f 81f
12:00am 7 8 mph 1016.1mb 81f 81f
Thu 05/25 11:00pm 9 10 mph 1015.8mb 81f 82f
10:00pm 9 10 mph 1015mb 81f 82f
9:00pm 14 14 mph 1014.6mb 81f 83f
8:00pm 15 17 mph 1014.1mb 81f 84f
7:00pm 17 18 mph 1013.1mb 81f 84f
6:00pm 20 21 mph 1012.6mb 80f 85f
5:00pm 17 18 mph 1013.1mb 83f 83f
4:00pm 26 29 mph 1012.4mb 83f 85f
3:00pm 29 31 mph 1012.9mb 82f 85f
2:00pm 30 32 mph 1013.1mb 82f 85f
1:00pm 26 29 mph 1013.5mb 81f 83f
12:00pm 32 33 mph 1013.7mb 82f 83f
11:00am 28 31 mph 1013.5mb 80f 83f
10:00am 31 33 mph 1012.8mb 80f 82f
9:00am 30 32 mph 1012.3mb 80f 82f
8:00am 29 31 mph 1011.6mb 80f 82f
7:00am 31 33 mph 1011.3mb 80f 82f
6:00am 26 28 mph 1011.3mb 80f 81f
5:00am 24 25 mph 1010.9mb 82f 81f
4:00am 23 26 mph 1010.8mb 82f 81f
3:00am 25 28 mph 1011.5mb 82f 81f
2:00am 25 26 mph 1011.9mb 81f 80f
1:00am 23 25 mph 1011.8mb 80f 79f
12:00am 17 20 mph 1012.2mb 80f 76f
Wed 05/24 11:00pm 18 21 mph 1013.5mb 80f 75f
10:00pm 24 26 mph 1013.3mb 80f 74f
9:00pm 26 29 mph 1011.9mb 80f 82f
8:00pm 31 32 mph 1010.3mb 81f 81f
7:00pm 30 32 mph 1010.3mb 81f 82f
6:00pm 24 24 mph 1010.2mb 80f 82f
5:00pm 22 24 mph 1010.7mb 80f 83f
4:00pm 25 28 mph 1010.9mb 82f 83f
3:00pm 31 33 mph 1011mb 82f 83f
2:00pm 30 32 mph 1011.1mb 82f 83f
1:00pm 28 30 mph 1012mb 81f 83f
12:00pm 29 30 mph 1012.8mb 81f 82f
11:00am 23 24 mph 1012.3mb 80f 82f
10:00am 23 23 mph 1011.9mb 80f 83f
9:00am 23 24 mph 1011.8mb 80f 82f
8:00am 23 24 mph 1011.7mb 80f 82f
7:00am 22 24 mph 1011.8mb 80f 81f
6:00am 18 21 mph 1012.2mb 80f 81f
5:00am 18 20 mph 1012.5mb 80f 81f
4:00am 20 21 mph 1012.6mb 81f 81f
3:00am 20 21 mph 1012.6mb 81f 81f
2:00am 24 25 mph 1013.4mb 80f 81f
1:00am 23 24 mph 1014mb 80f 81f
12:00am 20 22 mph 1014.5mb 81f 80f
Tue 05/23 11:00pm 16 17 mph 1014.1mb 80f 80f